Worthington, MN

2:58 PM CDT on August 04, 2015 (GMT -0500)
Worthignton | | Change Station
CLOSE
Current Station
Personal Weather Station
Location: Worthington, MN
Elevation: 1587 ft
Nearby Weather Stations

Elev 1587 ft 43.56 °N, 95.57 °W | Updated 16 seconds ago

Partly Cloudy
Partly Cloudy
74.7 °F
Feels Like 77 °F
N
2.1
Wind Variable Wind from SSE
Gusts 5.0 mph

Today
High -- | Low -- °F
--% Chance of Precip.
Yesterday
High -- | Low -- °F
Precip. -- in
6:14 AM 8:41 PM
Waning Gibbous, 75% visible
Pressure 30.01 in
Visibility 10.0 miles
Clouds Few 4200 ft
Heat Index 77 °F
Dew Point 59 °F
Humidity 58%
Rainfall 0.00 in
Snow Depth Not available.
UV 9 out of 12
Pollen 6.30 out of 12
Air Quality Not available.
Flu Activity Not available.
METAR KOTG 041955Z AUTO 13006KT 10SM FEW042 23/14 A3001 RMK AO1

More Conditions Fewer Conditions

Pressure 30.01 in
Visibility 10.0 miles
Clouds Few 4200 ft
Heat Index 77 °F
Dew Point 59 °F
Humidity 58%
Rainfall 0.00 in
Snow Depth Not available.
UV 9 out of 12
Pollen 6.30 out of 12
Air Quality Not available.
Flu Activity Not available.
METAR KOTG 041955Z AUTO 13006KT 10SM FEW042 23/14 A3001 RMK AO1

More Conditions Fewer Conditions

10-Day Weather Forecast

×

Almanac

Astronomy

Aug. 04, 2015 Rise Set
Actual Time
Civil Twilight
Nautical Twilight
Astronomical Twilight
Moon
Length of Visible Light
Length of Day
Tomorrow will be .
, % of the Moon is Illuminated

Today's Extremes

State Highs State Lows

Community

WunderPhotos

Upload Photos

1,843,956 photos uploaded!

WunderBlogs® & News

Nearby

Air Quality

  Air Quality AQ Index Pollutant
Not available.

Snow Depth

Station Depth Elevation

Earthquake Activity

City Distance Mag. Time & Date
Minimum magnitude displayed is 2.5.

Coastal Water Temperatures

Place Temperature

Stations

Nearby Weather Stations

Station Location Temp. Windchill Dew Point Humidity Wind Precip. Elev Updated Type